createdAt,value
2019-05-11T00:01:15.973Z,8.03
2019-05-11T00:06:49.594Z,8.05
2019-05-11T00:09:58.751Z,8.00
2019-05-11T00:12:30.089Z,8.03
2019-05-11T00:14:59.486Z,8.03
2019-05-11T00:17:28.955Z,8.07
2019-05-11T00:20:02.273Z,8.10
2019-05-11T00:22:32.509Z,8.13
2019-05-11T00:25:02.326Z,8.07
2019-05-11T00:28:11.119Z,8.04
2019-05-11T00:33:55.644Z,8.04
2019-05-11T00:36:25.140Z,8.10
2019-05-11T00:38:54.554Z,8.12
2019-05-11T00:41:24.518Z,8.16
2019-05-11T00:43:53.869Z,8.16
2019-05-11T00:46:23.276Z,8.16
2019-05-11T00:51:27.796Z,8.18
2019-05-11T00:53:58.021Z,8.21
2019-05-11T00:57:06.753Z,8.21
2019-05-11T01:02:31.923Z,8.03
2019-05-11T01:05:01.441Z,7.99
2019-05-11T01:13:21.414Z,8.12
2019-05-11T01:16:30.944Z,8.14
2019-05-11T01:19:00.563Z,8.17
2019-05-11T01:21:30.125Z,8.11
2019-05-11T01:23:59.645Z,8.00
2019-05-11T01:26:48.705Z,8.04
2019-05-11T01:29:18.216Z,8.07
2019-05-11T01:31:48.069Z,8.08
2019-05-11T01:34:17.638Z,8.09
2019-05-11T01:36:47.081Z,8.11
2019-05-11T01:39:16.700Z,8.09
2019-05-11T01:42:28.095Z,8.06
2019-05-11T01:45:17.557Z,8.03
2019-05-11T01:50:42.677Z,7.83
2019-05-11T01:58:56.868Z,7.88
2019-05-11T02:01:26.845Z,7.85
2019-05-11T02:03:56.397Z,7.91
2019-05-11T02:06:25.891Z,7.97
2019-05-11T02:11:51.846Z,7.96
2019-05-11T02:20:26.287Z,7.87
2019-05-11T02:25:58.918Z,7.90
2019-05-11T02:28:28.319Z,7.90
2019-05-11T02:30:57.827Z,7.89
2019-05-11T02:33:27.956Z,7.91
2019-05-11T02:35:57.454Z,7.94
2019-05-11T02:38:27.376Z,7.89
2019-05-11T02:40:56.958Z,7.92
2019-05-11T02:43:28.031Z,7.96
2019-05-11T02:46:36.930Z,8.00
2019-05-11T02:52:24.406Z,8.08
2019-05-11T02:55:33.756Z,8.13
2019-05-11T03:00:59.385Z,8.19
2019-05-11T03:06:23.383Z,8.21
2019-05-11T03:08:53.188Z,8.21
2019-05-11T03:14:11.766Z,8.26
2019-05-11T03:16:41.780Z,8.26
2019-05-11T03:19:11.192Z,8.21
2019-05-11T03:21:41.314Z,8.17
2019-05-11T03:24:11.739Z,8.18
2019-05-11T03:26:41.761Z,8.19
2019-05-11T03:29:11.282Z,8.14
2019-05-11T03:32:20.485Z,8.17
2019-05-11T03:38:17.726Z,8.21
2019-05-11T03:43:42.353Z,8.31
2019-05-11T03:46:52.318Z,8.26
2019-05-11T03:49:22.726Z,8.24
2019-05-11T03:51:53.611Z,8.23
2019-05-11T03:54:23.240Z,8.30
2019-05-11T03:56:52.849Z,8.30
2019-05-11T03:59:22.398Z,8.37
2019-05-11T04:01:51.880Z,8.39
2019-05-11T04:04:21.368Z,8.45
2019-05-11T04:09:26.370Z,8.45
2019-05-11T04:12:35.927Z,8.46
2019-05-11T04:18:03.084Z,8.61
2019-05-11T04:23:33.470Z,8.65
2019-05-11T04:29:17.354Z,8.72
2019-05-11T04:31:47.224Z,8.80
2019-05-11T04:34:16.596Z,8.82
2019-05-11T04:39:34.823Z,8.78
2019-05-11T04:42:04.593Z,8.77
2019-05-11T04:44:35.185Z,8.81
2019-05-11T04:47:04.890Z,8.80
2019-05-11T04:49:35.453Z,8.81
2019-05-11T04:52:05.925Z,8.88
2019-05-11T04:54:36.023Z,8.84
2019-05-11T04:57:06.162Z,8.91
2019-05-11T04:59:35.602Z,8.94
2019-05-11T05:02:05.533Z,9.00
2019-05-11T05:04:35.595Z,8.97
2019-05-11T05:07:05.545Z,8.99
2019-05-11T05:09:42.987Z,9.03
2019-05-11T05:12:13.642Z,9.10
2019-05-11T05:17:41.808Z,9.05
2019-05-11T05:23:15.641Z,9.21
2019-05-11T05:26:24.275Z,9.16
2019-05-11T05:31:49.478Z,8.92
2019-05-11T05:34:58.253Z,8.97
2019-05-11T05:38:07.721Z,8.96
2019-05-11T05:40:37.519Z,8.90
2019-05-11T05:46:03.287Z,9.00
2019-05-11T05:48:32.695Z,8.96
2019-05-11T05:51:02.461Z,8.96
2019-05-11T05:53:32.339Z,8.55
2019-05-11T05:56:01.988Z,9.12
2019-05-11T06:01:23.650Z,9.16
2019-05-11T06:04:12.294Z,9.30
2019-05-11T06:06:42.325Z,9.15
2019-05-11T06:09:11.786Z,9.09
2019-05-11T06:11:41.143Z,9.20
2019-05-11T06:14:10.571Z,9.23
2019-05-11T06:16:40.006Z,9.34
2019-05-11T06:19:10.218Z,9.30
2019-05-11T06:21:39.903Z,9.38
2019-05-11T06:24:10.279Z,9.55
2019-05-11T06:29:37.132Z,9.74
2019-05-11T06:38:11.048Z,9.96
2019-05-11T06:40:40.455Z,10.05
2019-05-11T06:43:09.836Z,10.16
2019-05-11T06:45:51.034Z,10.21
2019-05-11T06:48:21.055Z,10.18
2019-05-11T06:51:30.106Z,10.30
2019-05-11T06:56:55.816Z,10.48
2019-05-11T06:59:25.346Z,10.53
2019-05-11T07:01:55.188Z,10.62
2019-05-11T07:04:24.970Z,10.64
2019-05-11T07:06:54.395Z,10.59
2019-05-11T07:09:23.920Z,10.56
2019-05-11T07:11:53.535Z,10.63
2019-05-11T07:14:23.138Z,10.77
2019-05-11T07:19:51.648Z,10.89
2019-05-11T07:22:21.102Z,10.86
2019-05-11T07:27:46.695Z,10.97
2019-05-11T07:30:17.664Z,10.99
2019-05-11T07:32:48.158Z,11.02
2019-05-11T07:35:18.778Z,11.17
2019-05-11T07:37:48.560Z,11.20
2019-05-11T07:40:19.881Z,11.17
2019-05-11T07:42:49.418Z,11.18
2019-05-11T07:48:28.395Z,11.20
2019-05-11T07:50:59.622Z,11.32
2019-05-11T07:53:29.456Z,11.37
2019-05-11T07:58:34.433Z,11.65
2019-05-11T08:03:43.310Z,12.16
2019-05-11T08:08:54.754Z,12.24
2019-05-11T08:11:28.090Z,12.12
2019-05-11T08:17:22.251Z,12.18
2019-05-11T08:19:51.738Z,12.36
2019-05-11T08:23:00.903Z,12.56
2019-05-11T08:28:28.617Z,12.62
2019-05-11T08:30:58.047Z,12.54
2019-05-11T08:33:28.405Z,12.75
2019-05-11T08:35:58.444Z,12.90
2019-05-11T08:38:30.858Z,12.95
2019-05-11T08:41:00.361Z,13.12
2019-05-11T08:43:29.761Z,13.40
2019-05-11T08:45:59.435Z,13.40
2019-05-11T08:48:28.868Z,13.41
2019-05-11T08:50:58.411Z,13.56
2019-05-11T08:53:28.503Z,13.83
2019-05-11T08:58:39.671Z,13.99
2019-05-11T09:01:09.133Z,14.26
2019-05-11T09:03:58.476Z,14.44
2019-05-11T09:06:28.510Z,14.18
2019-05-11T09:08:58.430Z,14.16
2019-05-11T09:11:28.524Z,14.50
2019-05-11T09:13:58.320Z,14.77
2019-05-11T09:19:42.711Z,15.07
2019-05-11T09:22:12.184Z,15.00
2019-05-11T09:24:41.689Z,14.76
2019-05-11T09:27:11.097Z,14.69
2019-05-11T09:29:40.703Z,14.33
2019-05-11T09:32:10.107Z,14.32
2019-05-11T09:34:39.654Z,14.32
2019-05-11T09:37:09.418Z,14.71
2019-05-11T09:39:38.867Z,14.50
2019-05-11T09:44:44.088Z,14.26
2019-05-11T09:47:13.669Z,14.23
2019-05-11T09:52:45.281Z,14.03
2019-05-11T09:55:54.136Z,14.20
2019-05-11T09:58:35.881Z,14.30
2019-05-11T10:04:09.006Z,14.95
2019-05-11T10:09:29.605Z,15.63
2019-05-11T10:11:59.225Z,15.33
2019-05-11T10:14:29.000Z,15.38
2019-05-11T10:19:54.968Z,15.60
2019-05-11T10:25:51.107Z,15.38
2019-05-11T10:31:22.261Z,15.37
2019-05-11T10:33:51.877Z,15.63
2019-05-11T10:36:21.493Z,15.62
2019-05-11T10:41:47.963Z,15.64
2019-05-11T10:44:18.927Z,15.76
2019-05-11T10:46:49.986Z,15.57
2019-05-11T10:49:20.313Z,15.25
2019-05-11T10:51:49.881Z,15.19
2019-05-11T10:54:19.756Z,15.27
2019-05-11T10:56:49.212Z,15.19
2019-05-11T10:59:19.173Z,15.47
2019-05-11T11:05:03.135Z,15.74
2019-05-11T11:07:32.581Z,15.64
2019-05-11T11:10:01.975Z,15.74
2019-05-11T11:12:31.508Z,15.90
2019-05-11T11:15:01.345Z,16.17
2019-05-11T11:17:30.852Z,16.56
2019-05-11T11:20:21.506Z,16.55
2019-05-11T11:22:51.316Z,16.81
2019-05-11T11:25:20.953Z,16.91
2019-05-11T11:28:29.704Z,17.05
2019-05-11T11:30:59.393Z,17.55
2019-05-11T11:33:28.990Z,17.53
2019-05-11T11:35:58.877Z,17.17
2019-05-11T11:38:29.174Z,17.23
2019-05-11T11:41:38.090Z,17.43
2019-05-11T11:44:28.525Z,17.43
2019-05-11T11:53:18.605Z,17.18
2019-05-11T11:55:48.186Z,17.53
2019-05-11T11:58:23.753Z,17.51
2019-05-11T12:00:51.858Z,17.88
2019-05-11T12:03:21.230Z,17.99
2019-05-11T12:05:50.664Z,18.36
2019-05-11T12:08:20.035Z,18.66
2019-05-11T12:10:49.989Z,18.84
2019-05-11T12:13:19.577Z,19.14
2019-05-11T12:15:48.969Z,19.13
2019-05-11T12:18:18.599Z,19.12
2019-05-11T12:20:48.178Z,19.18
2019-05-11T12:26:28.187Z,19.10
2019-05-11T12:28:59.088Z,18.64
2019-05-11T12:32:08.255Z,18.37
2019-05-11T12:34:38.987Z,18.18
2019-05-11T12:37:08.571Z,18.56
2019-05-11T12:39:40.001Z,18.78
2019-05-11T12:47:59.698Z,19.34
2019-05-11T12:50:29.931Z,18.97
2019-05-11T13:02:12.004Z,19.93
2019-05-11T13:07:39.178Z,19.35
2019-05-11T13:10:08.732Z,19.62
2019-05-11T13:12:38.733Z,20.29
2019-05-11T13:15:28.171Z,21.10
2019-05-11T13:21:00.254Z,22.51
2019-05-11T13:24:09.093Z,22.81
2019-05-11T13:26:38.676Z,22.53
2019-05-11T13:29:28.631Z,21.62
2019-05-11T13:31:59.695Z,20.43
2019-05-11T13:34:31.539Z,20.60
2019-05-11T13:37:39.995Z,20.74
2019-05-11T13:46:08.776Z,19.55
2019-05-11T13:51:40.932Z,19.47
2019-05-11T13:54:10.868Z,19.60
2019-05-11T13:56:40.315Z,19.91
2019-05-11T14:02:11.264Z,19.59
2019-05-11T14:07:37.954Z,19.36
2019-05-11T14:13:30.911Z,20.24
2019-05-11T14:18:40.114Z,19.57
2019-05-11T14:21:09.508Z,19.30
2019-05-11T14:23:39.012Z,19.71
2019-05-11T14:26:08.843Z,20.27
2019-05-11T14:28:38.989Z,18.85
2019-05-11T14:31:08.521Z,18.87
2019-05-11T14:33:38.694Z,18.92
2019-05-11T14:36:08.764Z,18.04
2019-05-11T14:38:38.323Z,18.25
2019-05-11T14:41:08.547Z,17.96
2019-05-11T14:43:38.480Z,18.38
2019-05-11T14:46:08.659Z,18.69
2019-05-11T14:48:39.184Z,18.83
2019-05-11T14:51:10.112Z,18.33
2019-05-11T14:53:39.601Z,17.96
2019-05-11T14:56:09.339Z,17.28
2019-05-11T15:01:53.741Z,17.19
2019-05-11T15:04:23.089Z,16.42
2019-05-11T15:06:52.575Z,16.40
2019-05-11T15:09:22.521Z,16.62
2019-05-11T15:11:52.657Z,17.19
2019-05-11T15:14:22.355Z,17.29
2019-05-11T15:16:51.753Z,17.65
2019-05-11T15:19:21.207Z,17.60
2019-05-11T15:21:50.839Z,17.80
2019-05-11T15:24:20.428Z,17.93
2019-05-11T15:26:49.839Z,17.86
2019-05-11T15:29:19.337Z,16.62
2019-05-11T15:31:48.729Z,16.93
2019-05-11T15:34:18.688Z,16.31
2019-05-11T15:37:08.399Z,16.17
2019-05-11T15:45:42.236Z,15.35
2019-05-11T15:48:11.678Z,14.65
2019-05-11T15:51:21.213Z,14.33
2019-05-11T15:53:50.666Z,14.05
2019-05-11T15:56:20.241Z,13.90
2019-05-11T15:58:49.719Z,13.78
2019-05-11T16:01:19.181Z,13.62
2019-05-11T16:03:50.141Z,13.69
2019-05-11T16:09:45.357Z,13.13
2019-05-11T16:18:50.748Z,13.14
2019-05-11T16:24:22.670Z,12.96
2019-05-11T16:27:31.336Z,12.84
2019-05-11T16:30:00.751Z,12.70
2019-05-11T16:32:30.260Z,12.71
2019-05-11T16:35:00.451Z,12.59
2019-05-11T16:40:25.837Z,12.13
2019-05-11T16:46:04.844Z,11.27
2019-05-11T16:48:34.572Z,10.86
2019-05-11T16:51:04.175Z,10.74
2019-05-11T16:56:09.304Z,10.79
2019-05-11T16:58:41.146Z,10.67
2019-05-11T17:01:10.099Z,10.79
2019-05-11T17:03:39.724Z,10.73
2019-05-11T17:06:09.173Z,10.70
2019-05-11T17:08:38.657Z,10.75
2019-05-11T17:11:08.429Z,10.82
2019-05-11T17:13:39.514Z,10.93
2019-05-11T17:16:09.071Z,10.98
2019-05-11T17:18:38.422Z,10.45
2019-05-11T17:21:08.040Z,11.11
2019-05-11T17:23:38.399Z,11.08
2019-05-11T17:26:08.895Z,11.06
2019-05-11T17:29:18.555Z,11.04
2019-05-11T17:31:49.318Z,11.01
2019-05-11T17:34:59.099Z,11.02
2019-05-11T17:40:42.868Z,11.05
2019-05-11T17:43:51.655Z,11.13
2019-05-11T17:46:21.403Z,11.14
2019-05-11T17:48:51.182Z,11.12
2019-05-11T17:51:24.698Z,11.12
2019-05-11T17:53:52.781Z,11.08
2019-05-11T17:56:22.526Z,11.05
2019-05-11T17:58:52.064Z,10.99
2019-05-11T18:01:21.670Z,11.03
2019-05-11T18:07:06.076Z,11.00
2019-05-11T18:09:37.927Z,10.92
2019-05-11T18:12:06.901Z,10.83
2019-05-11T18:14:39.358Z,10.90
2019-05-11T18:17:29.459Z,10.87
2019-05-11T18:23:08.362Z,10.73
2019-05-11T18:25:39.469Z,10.74
2019-05-11T18:28:09.259Z,10.76
2019-05-11T18:30:39.061Z,10.83
2019-05-11T18:33:10.104Z,10.90
2019-05-11T18:35:39.755Z,10.90
2019-05-11T18:38:09.278Z,10.90
2019-05-11T18:40:38.630Z,10.87
2019-05-11T18:43:08.691Z,10.87
2019-05-11T18:45:38.549Z,10.89
2019-05-11T18:48:08.278Z,10.84
2019-05-11T18:53:48.226Z,10.83
2019-05-11T18:56:18.177Z,10.83
2019-05-11T18:58:49.004Z,10.78
2019-05-11T19:01:18.800Z,10.78
2019-05-11T19:03:48.231Z,10.82
2019-05-11T19:06:18.511Z,10.81
2019-05-11T19:11:44.106Z,10.82
2019-05-11T19:14:14.202Z,10.79
2019-05-11T19:16:43.620Z,10.70
2019-05-11T19:19:13.340Z,10.68
2019-05-11T19:24:39.031Z,10.77
2019-05-11T19:27:08.635Z,10.79
2019-05-11T19:32:34.415Z,10.74
2019-05-11T19:38:52.013Z,10.66
2019-05-11T19:47:28.122Z,10.63
2019-05-11T19:52:59.992Z,10.66
2019-05-11T19:55:29.538Z,10.68
2019-05-11T19:58:39.430Z,10.66
2019-05-11T20:04:18.957Z,10.67
2019-05-11T20:07:27.905Z,10.68
2019-05-11T20:10:38.309Z,10.69
2019-05-11T20:13:08.133Z,10.71
2019-05-11T20:18:18.216Z,10.53
2019-05-11T20:24:15.114Z,10.52
2019-05-11T20:29:40.719Z,10.56
2019-05-11T20:32:49.631Z,10.49
2019-05-11T20:35:20.071Z,10.57
2019-05-11T20:37:49.859Z,10.53
2019-05-11T20:43:14.869Z,10.38
2019-05-11T20:45:44.326Z,10.32
2019-05-11T20:48:13.969Z,10.30
2019-05-11T20:50:43.464Z,10.29
2019-05-11T20:53:12.903Z,10.27
2019-05-11T20:55:42.474Z,10.28
2019-05-11T21:01:21.586Z,10.30
2019-05-11T21:04:12.138Z,10.29
2019-05-11T21:06:41.631Z,10.35
2019-05-11T21:09:50.563Z,10.37
2019-05-11T21:15:18.036Z,10.44
2019-05-11T21:17:48.213Z,10.46
2019-05-11T21:23:25.350Z,10.50
2019-05-11T21:25:54.890Z,10.43
2019-05-11T21:28:24.439Z,10.48
2019-05-11T21:39:28.756Z,10.53
2019-05-11T21:45:00.758Z,10.59
2019-05-11T21:48:09.696Z,10.57
2019-05-11T21:50:39.194Z,10.60
2019-05-11T21:53:10.601Z,10.66
2019-05-11T21:58:41.826Z,10.67
2019-05-11T22:01:11.757Z,10.67
2019-05-11T22:03:41.243Z,10.67
2019-05-11T22:12:10.890Z,10.70
2019-05-11T22:17:42.575Z,10.72
2019-05-11T22:20:51.278Z,10.70
2019-05-11T22:23:21.283Z,10.74
2019-05-11T22:25:50.835Z,10.73
2019-05-11T22:29:00.579Z,10.75
2019-05-11T22:31:30.957Z,10.78
2019-05-11T22:37:34.760Z,10.84
2019-05-11T22:43:29.160Z,10.82
2019-05-11T22:48:52.960Z,10.83
2019-05-11T22:52:01.819Z,10.81
2019-05-11T22:54:31.750Z,10.80
2019-05-11T22:57:01.093Z,10.81
2019-05-11T22:59:30.551Z,10.78
2019-05-11T23:02:11.751Z,10.81
2019-05-11T23:04:41.263Z,10.81
2019-05-11T23:07:10.781Z,10.78
2019-05-11T23:09:40.596Z,10.80
2019-05-11T23:12:10.264Z,10.83
2019-05-11T23:15:19.132Z,10.82
2019-05-11T23:17:49.698Z,10.82
2019-05-11T23:20:58.499Z,10.80
2019-05-11T23:23:28.416Z,10.78
2019-05-11T23:25:59.317Z,10.72
2019-05-11T23:29:08.303Z,10.71
2019-05-11T23:31:50.558Z,10.69
2019-05-11T23:37:03.146Z,10.60
2019-05-11T23:39:32.543Z,10.53
2019-05-11T23:42:21.340Z,10.47
2019-05-11T23:47:59.986Z,10.33
2019-05-11T23:51:08.864Z,10.29
2019-05-11T23:54:19.147Z,10.27
2019-05-11T23:56:48.653Z,10.24
2019-05-11T23:59:58.066Z,10.13
